createdAt,value
2022-08-17T11:25:20.347Z,16632.00
2022-08-17T11:26:21.504Z,27808.00
2022-08-17T11:27:23.602Z,58464.00
2022-08-17T11:28:25.645Z,59360.00
2022-08-17T11:29:27.688Z,62464.00
2022-08-17T11:30:29.115Z,60192.00
2022-08-17T11:31:38.593Z,59840.00
2022-08-17T11:32:32.178Z,58432.00
2022-08-17T11:33:36.783Z,62432.00
2022-08-17T11:34:35.629Z,60064.00
2022-08-17T11:35:37.691Z,55840.00
2022-08-17T11:36:39.799Z,64256.00
2022-08-17T11:37:41.842Z,67072.00
2022-08-17T11:38:43.920Z,66624.00
2022-08-17T11:39:45.415Z,57952.00
2022-08-17T11:40:46.472Z,67360.00
2022-08-17T11:41:48.533Z,70496.00
2022-08-17T11:42:50.800Z,70720.00
2022-08-17T11:43:51.933Z,72288.00
2022-08-17T11:44:53.977Z,62912.00
2022-08-17T11:45:56.026Z,55232.00
2022-08-17T11:46:58.060Z,57344.00
2022-08-17T11:48:26.008Z,44128.00
2022-08-17T11:49:01.367Z,53280.00
2022-08-17T11:50:03.453Z,61152.00
2022-08-17T11:51:05.561Z,56960.00
2022-08-17T11:52:07.671Z,60160.00
2022-08-17T11:53:09.707Z,48672.00
2022-08-17T11:55:34.387Z,58912.00
2022-08-17T11:56:14.164Z,53824.00
2022-08-17T11:57:16.318Z,49408.00
2022-08-17T11:58:18.718Z,54464.00
2022-08-17T11:59:19.715Z,53440.00
2022-08-17T12:00:21.770Z,61472.00
2022-08-17T12:01:23.839Z,61600.00
2022-08-17T12:02:25.878Z,60096.00
2022-08-17T12:03:27.372Z,59072.00
2022-08-17T12:04:28.412Z,56000.00
2022-08-17T12:05:29.349Z,50016.00
2022-08-17T12:06:31.397Z,55552.00
2022-08-17T12:07:33.437Z,56256.00
2022-08-17T12:08:35.475Z,57024.00
2022-08-17T12:09:37.512Z,54432.00
2022-08-17T12:10:39.866Z,56512.00
2022-08-17T12:11:56.323Z,60320.00
2022-08-17T12:12:42.079Z,57376.00
2022-08-17T12:13:44.116Z,59552.00
2022-08-17T12:15:08.860Z,62656.00
2022-08-17T12:15:48.372Z,59360.00
2022-08-17T12:16:49.305Z,63488.00
2022-08-17T12:17:51.943Z,62112.00
2022-08-17T12:18:53.250Z,66368.00
2022-08-17T12:19:55.346Z,69568.00
2022-08-17T12:20:57.444Z,63680.00
2022-08-17T12:21:59.489Z,62496.00
2022-08-17T12:23:01.538Z,63328.00
2022-08-17T12:24:03.761Z,59840.00
2022-08-17T12:25:05.847Z,58176.00
2022-08-17T12:26:07.891Z,54880.00
2022-08-17T12:27:09.943Z,44128.00
2022-08-17T12:28:12.210Z,40352.00
2022-08-17T12:29:18.469Z,37280.00
2022-08-17T12:30:15.291Z,38528.00
2022-08-17T12:31:17.345Z,47776.00
2022-08-17T12:32:19.424Z,50080.00
2022-08-17T12:33:25.265Z,48160.00
2022-08-17T12:34:22.730Z,49376.00
2022-08-17T12:35:24.782Z,50912.00
2022-08-17T12:36:26.815Z,50912.00
2022-08-17T12:37:28.949Z,52032.00
2022-08-17T12:38:33.290Z,50496.00
2022-08-17T12:39:33.999Z,45184.00
2022-08-17T12:40:34.007Z,60768.00
2022-08-17T12:41:36.206Z,61280.00
2022-08-17T12:42:38.400Z,63008.00
2022-08-17T12:43:40.438Z,50976.00
2022-08-17T12:44:50.039Z,64544.00
2022-08-17T12:45:44.683Z,61472.00
2022-08-17T12:46:45.750Z,59104.00
2022-08-17T12:47:47.795Z,41248.00
2022-08-17T12:48:59.036Z,35296.00
2022-08-17T12:49:51.301Z,27648.00
2022-08-17T12:50:53.345Z,32992.00
2022-08-17T12:51:55.385Z,41984.00
2022-08-17T12:53:01.793Z,14196.00
2022-08-17T12:53:58.625Z,14192.00
2022-08-17T12:55:00.809Z,39936.00
2022-08-17T12:56:02.872Z,60928.00
2022-08-17T12:57:04.905Z,62464.00
2022-08-17T12:58:09.929Z,62304.00
2022-08-17T12:59:09.200Z,54208.00
2022-08-17T13:00:10.177Z,39008.00
2022-08-17T13:01:11.326Z,19904.00
2022-08-17T13:02:13.447Z,9868.00
2022-08-17T13:03:15.570Z,9284.00
2022-08-17T13:04:17.775Z,9244.00
2022-08-17T13:05:19.818Z,9456.00
2022-08-17T13:06:21.885Z,9652.00
2022-08-17T13:07:23.953Z,9944.00
2022-08-17T13:08:26.001Z,10068.00
2022-08-17T13:09:36.082Z,9976.00
2022-08-17T13:10:32.810Z,9756.00
2022-08-17T13:11:29.463Z,9080.00
2022-08-17T13:12:30.603Z,8312.00
2022-08-17T13:13:32.767Z,7736.00
2022-08-17T13:14:34.814Z,7216.00
2022-08-17T13:15:36.897Z,7040.00
2022-08-17T13:16:39.080Z,6884.00
2022-08-17T13:17:41.172Z,6532.00
2022-08-17T13:18:43.237Z,6128.00
2022-08-17T13:19:45.476Z,5784.00
2022-08-17T13:20:47.551Z,5648.00
2022-08-17T13:21:49.618Z,5536.00
2022-08-17T13:22:51.691Z,5568.00
2022-08-17T13:23:53.999Z,5608.00
2022-08-17T13:24:54.878Z,5604.00
2022-08-17T13:25:56.945Z,5588.00
2022-08-17T13:26:59.024Z,5504.00
2022-08-17T13:28:01.091Z,5472.00
2022-08-17T13:29:03.208Z,5456.00
2022-08-17T13:30:05.330Z,5364.00
2022-08-17T13:31:07.382Z,5260.00
2022-08-17T13:32:12.888Z,5164.00
2022-08-17T13:33:11.292Z,5112.00
2022-08-17T13:34:12.496Z,5192.00
2022-08-17T13:35:28.377Z,5380.00
2022-08-17T13:36:19.403Z,5560.00
2022-08-17T13:37:16.999Z,5680.00
2022-08-17T13:38:17.284Z,5800.00
2022-08-17T13:39:19.386Z,5936.00
2022-08-17T13:40:21.480Z,6060.00
2022-08-17T13:41:23.665Z,6240.00
2022-08-17T13:42:24.755Z,6364.00
2022-08-17T13:43:26.846Z,6332.00
2022-08-17T13:44:28.944Z,6404.00
2022-08-17T13:45:36.636Z,6568.00
2022-08-17T13:46:33.366Z,6600.00
2022-08-17T13:47:34.276Z,6684.00
2022-08-17T13:48:36.368Z,6804.00
2022-08-17T13:49:48.317Z,6916.00
2022-08-17T13:50:40.607Z,6776.00
2022-08-17T13:51:41.648Z,6580.00
2022-08-17T13:52:44.572Z,6272.00
2022-08-17T13:53:45.416Z,5944.00
2022-08-17T13:54:47.606Z,5796.00
2022-08-17T13:55:49.738Z,5720.00
2022-08-17T13:56:51.812Z,5544.00
2022-08-17T13:58:03.639Z,5308.00
2022-08-17T13:58:56.082Z,5060.00
2022-08-17T13:59:56.984Z,5016.00
2022-08-17T14:00:59.079Z,5092.00
2022-08-17T14:02:01.295Z,5156.00
2022-08-17T14:03:02.221Z,5284.00
2022-08-17T14:04:04.310Z,5472.00
2022-08-17T14:05:06.836Z,5576.00
2022-08-17T14:06:07.772Z,5696.00
2022-08-17T14:07:09.840Z,5912.00
2022-08-17T14:08:11.915Z,6440.00
2022-08-17T14:09:14.062Z,6680.00
2022-08-17T14:10:16.179Z,6668.00
2022-08-17T14:11:18.233Z,6152.00
2022-08-17T14:12:20.368Z,5896.00
2022-08-17T14:13:21.313Z,6212.00
2022-08-17T14:14:23.466Z,6284.00
2022-08-17T14:15:53.908Z,6452.00
2022-08-17T14:16:27.761Z,6616.00
2022-08-17T14:17:28.682Z,6752.00
2022-08-17T14:18:50.566Z,6724.00
2022-08-17T14:19:31.934Z,6820.00
2022-08-17T14:20:34.045Z,6656.00
2022-08-17T14:21:36.122Z,5948.00
2022-08-17T14:22:38.227Z,5368.00
2022-08-17T14:23:40.303Z,5080.00
2022-08-17T14:24:44.897Z,4952.00
2022-08-17T14:25:43.710Z,4880.00
2022-08-17T14:26:45.778Z,4780.00
2022-08-17T14:27:52.648Z,4548.00
2022-08-17T14:28:56.701Z,4344.00
2022-08-17T14:29:51.369Z,4160.00
2022-08-17T14:30:52.243Z,4048.00
2022-08-17T14:31:54.828Z,3964.00
2022-08-17T14:32:55.896Z,3908.00
2022-08-17T14:33:58.002Z,3872.00
2022-08-17T14:35:00.155Z,3792.00
2022-08-17T14:36:02.197Z,3692.00
2022-08-17T14:37:04.298Z,3676.00
2022-08-17T14:38:06.394Z,3668.00
2022-08-17T14:39:08.555Z,3668.00
2022-08-17T14:40:10.923Z,3664.00
2022-08-17T14:41:11.918Z,3636.00
2022-08-17T14:42:14.044Z,3596.00
2022-08-17T14:43:16.115Z,3556.00
2022-08-17T14:44:18.179Z,3540.00
2022-08-17T14:45:32.186Z,3532.00
2022-08-17T14:46:22.813Z,3524.00
2022-08-17T14:47:23.744Z,3508.00
2022-08-17T14:48:26.074Z,3508.00
2022-08-17T14:49:28.115Z,3520.00
2022-08-17T14:50:30.193Z,3536.00
2022-08-17T14:51:31.581Z,3540.00
2022-08-17T14:52:33.629Z,3544.00
2022-08-17T14:53:35.711Z,3604.00
2022-08-17T14:54:41.256Z,3616.00
2022-08-17T14:55:41.226Z,3540.00
2022-08-17T14:56:42.126Z,3660.00
2022-08-17T14:57:43.849Z,3844.00
2022-08-17T14:58:45.917Z,3960.00
2022-08-17T14:59:47.997Z,3976.00
2022-08-17T15:00:49.337Z,4008.00
2022-08-17T15:01:51.550Z,4004.00
2022-08-17T15:02:52.493Z,4048.00
2022-08-17T15:03:54.582Z,4200.00
2022-08-17T15:04:56.661Z,4268.00
2022-08-17T15:05:58.800Z,4316.00
2022-08-17T15:07:00.888Z,4404.00
2022-08-17T15:08:02.973Z,4508.00
2022-08-17T15:09:05.078Z,4488.00
2022-08-17T15:10:07.143Z,4408.00
2022-08-17T15:11:14.269Z,4336.00
2022-08-17T15:12:10.540Z,4216.00
2022-08-17T15:13:12.620Z,4044.00
2022-08-17T15:14:14.709Z,3836.00
2022-08-17T15:15:16.785Z,3792.00
2022-08-17T15:16:18.871Z,3696.00
2022-08-17T15:17:20.947Z,3616.00
2022-08-17T15:18:23.020Z,3536.00
2022-08-17T15:19:25.086Z,3376.00
2022-08-17T15:20:27.154Z,3308.00
2022-08-17T15:21:29.230Z,3336.00
2022-08-17T15:22:31.347Z,3404.00
2022-08-17T15:23:32.430Z,3296.00
2022-08-17T15:24:33.446Z,3060.00
2022-08-17T15:25:35.507Z,2960.00
2022-08-17T15:26:37.584Z,2256.00
2022-08-17T15:27:39.734Z,3184.00
2022-08-17T15:28:41.768Z,3688.00
2022-08-17T15:29:43.899Z,4156.00
2022-08-17T15:30:46.010Z,4644.00
2022-08-17T15:31:48.189Z,5120.00
2022-08-17T15:32:54.100Z,5500.00
2022-08-17T15:33:52.435Z,5728.00
2022-08-17T15:34:54.506Z,6116.00
2022-08-17T15:35:56.693Z,6396.00
2022-08-17T15:36:58.827Z,6496.00
2022-08-17T15:38:08.000Z,6464.00
2022-08-17T15:39:03.253Z,6324.00
2022-08-17T15:40:04.211Z,6096.00
2022-08-17T15:41:06.385Z,5784.00
2022-08-17T15:42:08.462Z,5400.00
2022-08-17T15:43:10.556Z,5076.00
2022-08-17T15:44:11.651Z,4720.00
2022-08-17T15:45:13.731Z,4448.00
2022-08-17T15:46:15.816Z,4284.00
2022-08-17T15:47:17.888Z,4236.00
2022-08-17T15:48:19.959Z,4340.00
2022-08-17T15:49:22.061Z,4392.00
2022-08-17T15:50:24.096Z,4508.00
2022-08-17T15:51:26.176Z,4628.00
2022-08-17T15:52:28.264Z,4680.00
2022-08-17T15:53:30.341Z,4748.00
2022-08-17T15:54:34.722Z,4868.00
2022-08-17T15:55:34.640Z,4944.00
2022-08-17T15:56:36.730Z,5056.00
2022-08-17T15:57:38.829Z,5188.00
2022-08-17T15:58:40.911Z,5264.00
2022-08-17T15:59:42.987Z,5292.00
2022-08-17T16:00:53.324Z,5228.00
2022-08-17T16:03:13.445Z,5068.00
2022-08-17T16:03:46.006Z,4860.00
2022-08-17T16:04:04.680Z,4648.00
2022-08-17T16:04:51.772Z,4456.00
2022-08-17T16:05:52.745Z,4332.00
2022-08-17T16:06:54.872Z,4220.00
2022-08-17T16:07:56.956Z,4100.00
2022-08-17T16:08:59.004Z,4024.00
2022-08-17T16:10:01.088Z,3960.00
2022-08-17T16:11:03.217Z,3852.00
2022-08-17T16:12:05.356Z,3716.00
2022-08-17T16:13:17.532Z,3608.00
2022-08-17T16:14:08.685Z,3448.00
2022-08-17T16:15:09.802Z,3284.00
2022-08-17T16:16:11.884Z,3104.00
2022-08-17T16:17:40.261Z,2988.00
2022-08-17T16:18:15.271Z,2904.00
2022-08-17T16:19:17.330Z,2884.00
2022-08-17T16:20:20.482Z,2872.00
2022-08-17T16:21:20.781Z,2724.00
2022-08-17T16:22:22.865Z,2616.00
2022-08-17T16:23:24.965Z,2636.00
2022-08-17T16:24:27.047Z,2692.00
2022-08-17T16:25:40.290Z,2792.00
2022-08-17T16:26:31.307Z,2960.00
2022-08-17T16:27:32.218Z,3148.00
2022-08-17T16:28:36.332Z,3300.00
2022-08-17T16:29:36.292Z,3472.00
2022-08-17T16:30:38.374Z,3612.00
2022-08-17T16:31:40.450Z,3792.00
2022-08-17T16:32:41.558Z,4008.00
2022-08-17T16:33:42.649Z,4168.00
2022-08-17T16:34:46.209Z,4336.00
2022-08-17T16:35:47.126Z,4420.00
2022-08-17T16:36:55.615Z,4464.00
2022-08-17T16:37:51.484Z,4420.00
2022-08-17T16:38:52.459Z,4344.00
2022-08-17T16:39:54.653Z,4328.00
2022-08-17T16:40:55.593Z,4392.00
2022-08-17T16:41:57.695Z,4380.00
2022-08-17T16:42:59.789Z,4368.00
2022-08-17T16:44:01.865Z,4316.00
2022-08-17T16:45:03.954Z,4208.00
2022-08-17T16:46:06.055Z,4076.00
2022-08-17T16:47:08.213Z,3916.00
2022-08-17T16:48:09.118Z,3772.00
2022-08-17T16:49:13.514Z,3644.00
2022-08-17T16:50:13.453Z,3584.00
2022-08-17T16:51:14.370Z,3540.00
2022-08-17T16:52:16.441Z,3600.00
2022-08-17T16:53:18.642Z,3772.00
2022-08-17T16:54:19.532Z,4008.00
2022-08-17T16:55:21.602Z,4232.00
2022-08-17T16:56:23.638Z,4492.00
2022-08-17T16:57:25.232Z,4548.00
2022-08-17T16:58:27.300Z,4520.00
2022-08-17T16:59:38.767Z,4336.00
2022-08-17T17:00:31.682Z,4164.00
2022-08-17T17:01:32.622Z,4036.00
2022-08-17T17:02:34.719Z,3756.00
2022-08-17T17:03:36.769Z,3460.00
2022-08-17T17:04:38.921Z,3236.00
2022-08-17T17:05:41.153Z,3036.00
2022-08-17T17:06:42.058Z,2884.00
2022-08-17T17:07:44.265Z,2748.00
2022-08-17T17:08:45.224Z,2556.00
2022-08-17T17:09:47.315Z,2340.00
2022-08-17T17:10:48.446Z,2144.00
2022-08-17T17:11:50.530Z,2000.00
2022-08-17T17:13:02.570Z,1932.00
2022-08-17T17:13:54.868Z,1924.00
2022-08-17T17:14:56.036Z,1920.00
2022-08-17T17:15:56.901Z,1916.00
2022-08-17T17:16:58.972Z,1952.00
2022-08-17T17:18:01.802Z,1964.00
2022-08-17T17:19:02.316Z,1940.00
2022-08-17T17:20:04.387Z,1932.00
2022-08-17T17:21:06.655Z,1920.00
2022-08-17T17:22:08.699Z,1920.00
2022-08-17T17:23:11.301Z,1920.00
2022-08-17T17:24:12.396Z,1908.00
2022-08-17T17:25:14.531Z,1912.00
2022-08-17T17:26:16.640Z,1928.00
2022-08-17T17:27:17.766Z,1932.00
2022-08-17T17:28:19.843Z,1912.00
2022-08-17T17:29:21.486Z,1880.00
2022-08-17T17:30:23.562Z,1832.00
2022-08-17T17:31:25.684Z,1760.00
2022-08-17T17:32:26.855Z,1676.00
2022-08-17T17:33:28.425Z,1588.00
2022-08-17T17:34:30.278Z,1508.00
2022-08-17T17:35:31.505Z,1432.00
2022-08-17T17:36:32.657Z,1352.00
2022-08-17T17:37:34.857Z,1276.00
2022-08-17T17:38:35.858Z,1220.00
2022-08-17T17:39:37.991Z,1176.00
2022-08-17T17:40:45.306Z,1144.00
2022-08-17T17:41:40.379Z,1120.00
2022-08-17T17:42:41.509Z,1112.00
2022-08-17T17:43:43.572Z,1108.00
2022-08-17T17:44:45.669Z,1108.00
2022-08-17T17:45:46.632Z,1112.00
2022-08-17T17:46:48.737Z,1104.00
2022-08-17T17:47:50.717Z,1092.00
2022-08-17T17:48:51.768Z,1092.00
2022-08-17T17:49:53.838Z,1080.00
2022-08-17T17:50:56.115Z,1068.00
2022-08-17T17:52:11.004Z,1052.00
2022-08-17T17:52:59.215Z,1024.00
2022-08-17T17:53:59.212Z,988.00
2022-08-17T17:55:01.316Z,948.00
2022-08-17T17:56:03.382Z,896.00
2022-08-17T17:57:05.460Z,848.00
2022-08-17T17:58:07.502Z,796.00
2022-08-17T17:59:12.665Z,752.00
2022-08-17T18:00:11.608Z,724.00
2022-08-17T18:02:15.477Z,664.00
2022-08-17T18:03:17.612Z,636.00
2022-08-17T18:04:20.708Z,612.00
2022-08-17T18:05:20.758Z,584.00
2022-08-17T18:06:22.799Z,552.00
2022-08-17T18:07:24.264Z,524.00
2022-08-17T18:08:32.095Z,492.00
2022-08-17T18:09:28.703Z,456.00
2022-08-17T18:10:30.471Z,428.00
2022-08-17T18:11:33.055Z,408.00
2022-08-17T18:12:31.556Z,384.00
2022-08-17T18:13:33.716Z,364.00
2022-08-17T18:14:35.781Z,348.00
2022-08-17T18:15:37.913Z,324.00
2022-08-17T18:16:40.040Z,308.00
2022-08-17T18:17:42.128Z,284.00
2022-08-17T18:18:44.197Z,264.00
2022-08-17T18:19:46.283Z,244.00
2022-08-17T18:20:54.069Z,224.00
2022-08-17T18:21:50.797Z,204.00
2022-08-17T18:22:51.736Z,192.00
2022-08-17T18:23:53.885Z,180.00
2022-08-17T18:24:56.243Z,172.00
2022-08-17T18:25:57.187Z,164.00
2022-08-17T18:26:59.272Z,152.00
2022-08-17T18:28:01.467Z,136.00
2022-08-17T18:29:03.591Z,128.00
2022-08-17T18:30:09.152Z,128.00
2022-08-17T18:31:06.856Z,120.00
2022-08-17T18:32:08.944Z,112.00
2022-08-17T18:33:10.986Z,100.00
2022-08-17T18:34:29.366Z,92.00
